sensor_id;sensor_type;location;lat;lon;timestamp;P1;durP1;ratioP1;P2;durP2;ratioP2
41689;SDS011;27372;42.658;23.256;2024-03-08T00:00:05;5.15;;;3.83;;
41689;SDS011;27372;42.658;23.256;2024-03-08T00:02:40;6.55;;;3.90;;
41689;SDS011;27372;42.658;23.256;2024-03-08T00:05:06;4.97;;;3.45;;
41689;SDS011;27372;42.658;23.256;2024-03-08T00:07:34;5.47;;;3.88;;
41689;SDS011;27372;42.658;23.256;2024-03-08T00:10:03;10.60;;;5.47;;
41689;SDS011;27372;42.658;23.256;2024-03-08T00:12:29;9.85;;;6.03;;
41689;SDS011;27372;42.658;23.256;2024-03-08T00:14:54;16.00;;;8.88;;
41689;SDS011;27372;42.658;23.256;2024-03-08T00:17:20;18.17;;;8.77;;
41689;SDS011;27372;42.658;23.256;2024-03-08T00:19:47;18.63;;;8.80;;
41689;SDS011;27372;42.658;23.256;2024-03-08T00:22:14;14.77;;;8.00;;
41689;SDS011;27372;42.658;23.256;2024-03-08T00:24:40;16.55;;;9.55;;
41689;SDS011;27372;42.658;23.256;2024-03-08T00:27:05;25.02;;;14.13;;
41689;SDS011;27372;42.658;23.256;2024-03-08T00:29:31;15.48;;;9.50;;
41689;SDS011;27372;42.658;23.256;2024-03-08T00:31:56;12.00;;;5.80;;
41689;SDS011;27372;42.658;23.256;2024-03-08T00:34:22;11.70;;;8.25;;
41689;SDS011;27372;42.658;23.256;2024-03-08T00:36:48;8.20;;;5.45;;
41689;SDS011;27372;42.658;23.256;2024-03-08T00:39:14;7.70;;;4.47;;
41689;SDS011;27372;42.658;23.256;2024-03-08T00:41:39;6.70;;;4.45;;
41689;SDS011;27372;42.658;23.256;2024-03-08T00:44:04;6.55;;;4.95;;
41689;SDS011;27372;42.658;23.256;2024-03-08T00:46:30;7.35;;;4.75;;
41689;SDS011;27372;42.658;23.256;2024-03-08T00:48:56;6.40;;;4.82;;
41689;SDS011;27372;42.658;23.256;2024-03-08T00:51:22;8.23;;;4.57;;
41689;SDS011;27372;42.658;23.256;2024-03-08T00:53:47;6.35;;;4.07;;
41689;SDS011;27372;42.658;23.256;2024-03-08T00:56:12;4.40;;;3.45;;
41689;SDS011;27372;42.658;23.256;2024-03-08T00:58:38;5.40;;;3.42;;
41689;SDS011;27372;42.658;23.256;2024-03-08T01:01:03;5.47;;;3.55;;
41689;SDS011;27372;42.658;23.256;2024-03-08T01:03:30;4.30;;;3.10;;
41689;SDS011;27372;42.658;23.256;2024-03-08T01:05:59;4.72;;;3.20;;
41689;SDS011;27372;42.658;23.256;2024-03-08T01:08:27;3.78;;;2.97;;
41689;SDS011;27372;42.658;23.256;2024-03-08T01:10:52;4.80;;;3.72;;
41689;SDS011;27372;42.658;23.256;2024-03-08T01:13:18;5.55;;;4.10;;
41689;SDS011;27372;42.658;23.256;2024-03-08T01:15:44;5.63;;;4.35;;
41689;SDS011;27372;42.658;23.256;2024-03-08T01:18:10;5.68;;;4.07;;
41689;SDS011;27372;42.658;23.256;2024-03-08T01:20:35;6.50;;;4.30;;
41689;SDS011;27372;42.658;23.256;2024-03-08T01:23:01;4.85;;;3.75;;
41689;SDS011;27372;42.658;23.256;2024-03-08T01:25:26;4.55;;;3.50;;
41689;SDS011;27372;42.658;23.256;2024-03-08T01:27:52;5.10;;;3.30;;
41689;SDS011;27372;42.658;23.256;2024-03-08T01:30:19;4.50;;;3.17;;
41689;SDS011;27372;42.658;23.256;2024-03-08T01:32:44;4.97;;;3.53;;
41689;SDS011;27372;42.658;23.256;2024-03-08T01:35:09;4.45;;;3.30;;
41689;SDS011;27372;42.658;23.256;2024-03-08T01:37:35;4.70;;;3.58;;
41689;SDS011;27372;42.658;23.256;2024-03-08T01:40:01;4.72;;;3.40;;
41689;SDS011;27372;42.658;23.256;2024-03-08T01:42:27;3.65;;;2.95;;
41689;SDS011;27372;42.658;23.256;2024-03-08T01:44:53;5.45;;;2.95;;
41689;SDS011;27372;42.658;23.256;2024-03-08T01:47:19;4.25;;;3.35;;
41689;SDS011;27372;42.658;23.256;2024-03-08T01:49:48;5.93;;;4.20;;
41689;SDS011;27372;42.658;23.256;2024-03-08T01:52:17;5.95;;;3.63;;
41689;SDS011;27372;42.658;23.256;2024-03-08T01:54:47;4.90;;;3.72;;
41689;SDS011;27372;42.658;23.256;2024-03-08T01:57:13;6.25;;;3.88;;
41689;SDS011;27372;42.658;23.256;2024-03-08T01:59:38;5.43;;;3.22;;
41689;SDS011;27372;42.658;23.256;2024-03-08T02:02:05;4.93;;;3.70;;
41689;SDS011;27372;42.658;23.256;2024-03-08T02:04:33;5.68;;;3.75;;
41689;SDS011;27372;42.658;23.256;2024-03-08T02:06:59;5.03;;;3.58;;
41689;SDS011;27372;42.658;23.256;2024-03-08T02:09:25;5.43;;;4.00;;
41689;SDS011;27372;42.658;23.256;2024-03-08T02:11:50;6.50;;;4.07;;
41689;SDS011;27372;42.658;23.256;2024-03-08T02:14:16;4.78;;;3.63;;
41689;SDS011;27372;42.658;23.256;2024-03-08T02:16:43;5.97;;;4.38;;
41689;SDS011;27372;42.658;23.256;2024-03-08T02:19:09;6.43;;;3.90;;
41689;SDS011;27372;42.658;23.256;2024-03-08T02:21:34;4.68;;;3.55;;
41689;SDS011;27372;42.658;23.256;2024-03-08T02:24:01;4.43;;;3.45;;
41689;SDS011;27372;42.658;23.256;2024-03-08T02:26:26;4.80;;;3.55;;
41689;SDS011;27372;42.658;23.256;2024-03-08T02:28:52;4.55;;;3.40;;
41689;SDS011;27372;42.658;23.256;2024-03-08T02:31:17;4.22;;;3.28;;
41689;SDS011;27372;42.658;23.256;2024-03-08T02:33:43;7.35;;;5.10;;
41689;SDS011;27372;42.658;23.256;2024-03-08T02:36:08;9.07;;;5.68;;
41689;SDS011;27372;42.658;23.256;2024-03-08T02:38:34;9.70;;;6.25;;
41689;SDS011;27372;42.658;23.256;2024-03-08T02:40:59;12.00;;;6.97;;
41689;SDS011;27372;42.658;23.256;2024-03-08T02:43:24;5.47;;;3.72;;
41689;SDS011;27372;42.658;23.256;2024-03-08T02:45:50;9.10;;;5.50;;
41689;SDS011;27372;42.658;23.256;2024-03-08T02:48:17;9.93;;;5.57;;
41689;SDS011;27372;42.658;23.256;2024-03-08T02:50:43;7.10;;;4.88;;
41689;SDS011;27372;42.658;23.256;2024-03-08T02:53:09;6.40;;;4.20;;
41689;SDS011;27372;42.658;23.256;2024-03-08T02:55:36;4.78;;;3.90;;
41689;SDS011;27372;42.658;23.256;2024-03-08T02:58:02;4.93;;;3.63;;
41689;SDS011;27372;42.658;23.256;2024-03-08T03:00:28;4.57;;;3.75;;
41689;SDS011;27372;42.658;23.256;2024-03-08T03:02:55;4.03;;;3.10;;
41689;SDS011;27372;42.658;23.256;2024-03-08T03:05:21;3.30;;;2.30;;
41689;SDS011;27372;42.658;23.256;2024-03-08T03:07:47;5.45;;;2.58;;
41689;SDS011;27372;42.658;23.256;2024-03-08T03:10:13;2.83;;;2.30;;
41689;SDS011;27372;42.658;23.256;2024-03-08T03:12:41;4.10;;;2.67;;
41689;SDS011;27372;42.658;23.256;2024-03-08T03:15:07;3.42;;;2.75;;
41689;SDS011;27372;42.658;23.256;2024-03-08T03:17:33;3.72;;;2.65;;
41689;SDS011;27372;42.658;23.256;2024-03-08T03:19:58;3.00;;;2.17;;
41689;SDS011;27372;42.658;23.256;2024-03-08T03:22:24;3.53;;;2.40;;
41689;SDS011;27372;42.658;23.256;2024-03-08T03:24:50;3.60;;;2.67;;
41689;SDS011;27372;42.658;23.256;2024-03-08T03:27:16;3.28;;;2.40;;
41689;SDS011;27372;42.658;23.256;2024-03-08T03:29:42;3.55;;;2.40;;
41689;SDS011;27372;42.658;23.256;2024-03-08T03:32:13;4.47;;;2.60;;
41689;SDS011;27372;42.658;23.256;2024-03-08T03:34:39;2.30;;;2.10;;
41689;SDS011;27372;42.658;23.256;2024-03-08T03:37:05;3.33;;;2.25;;
41689;SDS011;27372;42.658;23.256;2024-03-08T03:39:37;2.80;;;2.38;;
41689;SDS011;27372;42.658;23.256;2024-03-08T03:42:13;3.40;;;2.22;;
41689;SDS011;27372;42.658;23.256;2024-03-08T03:44:44;3.30;;;2.28;;
41689;SDS011;27372;42.658;23.256;2024-03-08T03:47:12;3.30;;;2.10;;
41689;SDS011;27372;42.658;23.256;2024-03-08T03:49:39;2.83;;;1.92;;
41689;SDS011;27372;42.658;23.256;2024-03-08T03:52:05;3.72;;;2.40;;
41689;SDS011;27372;42.658;23.256;2024-03-08T03:54:31;3.88;;;2.60;;
41689;SDS011;27372;42.658;23.256;2024-03-08T03:56:56;3.80;;;2.88;;
41689;SDS011;27372;42.658;23.256;2024-03-08T03:59:21;3.05;;;2.30;;
41689;SDS011;27372;42.658;23.256;2024-03-08T04:01:47;2.97;;;2.10;;
41689;SDS011;27372;42.658;23.256;2024-03-08T04:04:13;4.35;;;2.95;;
41689;SDS011;27372;42.658;23.256;2024-03-08T04:06:39;3.40;;;2.38;;
41689;SDS011;27372;42.658;23.256;2024-03-08T04:09:04;3.95;;;2.30;;
41689;SDS011;27372;42.658;23.256;2024-03-08T04:11:29;3.40;;;2.20;;
41689;SDS011;27372;42.658;23.256;2024-03-08T04:13:55;4.03;;;2.90;;
41689;SDS011;27372;42.658;23.256;2024-03-08T04:16:21;4.93;;;3.03;;
41689;SDS011;27372;42.658;23.256;2024-03-08T04:18:46;3.03;;;2.28;;
41689;SDS011;27372;42.658;23.256;2024-03-08T04:21:12;3.15;;;2.40;;
41689;SDS011;27372;42.658;23.256;2024-03-08T04:23:38;4.85;;;2.53;;
41689;SDS011;27372;42.658;23.256;2024-03-08T04:26:03;4.68;;;2.38;;
41689;SDS011;27372;42.658;23.256;2024-03-08T04:28:32;3.38;;;2.70;;
41689;SDS011;27372;42.658;23.256;2024-03-08T04:30:57;4.88;;;3.20;;
41689;SDS011;27372;42.658;23.256;2024-03-08T04:33:25;6.28;;;3.78;;
41689;SDS011;27372;42.658;23.256;2024-03-08T04:35:51;5.18;;;3.35;;
41689;SDS011;27372;42.658;23.256;2024-03-08T04:38:16;6.38;;;3.63;;
41689;SDS011;27372;42.658;23.256;2024-03-08T04:40:42;4.32;;;3.00;;
41689;SDS011;27372;42.658;23.256;2024-03-08T04:43:07;3.33;;;2.58;;
41689;SDS011;27372;42.658;23.256;2024-03-08T04:45:33;3.83;;;2.20;;
41689;SDS011;27372;42.658;23.256;2024-03-08T04:47:59;3.88;;;2.20;;
41689;SDS011;27372;42.658;23.256;2024-03-08T04:50:24;3.53;;;2.40;;
41689;SDS011;27372;42.658;23.256;2024-03-08T04:52:49;3.38;;;2.30;;
41689;SDS011;27372;42.658;23.256;2024-03-08T04:55:15;3.15;;;2.30;;
41689;SDS011;27372;42.658;23.256;2024-03-08T04:57:40;5.95;;;2.67;;
41689;SDS011;27372;42.658;23.256;2024-03-08T05:00:07;4.20;;;3.10;;
41689;SDS011;27372;42.658;23.256;2024-03-08T05:05:01;5.63;;;3.65;;
41689;SDS011;27372;42.658;23.256;2024-03-08T05:07:27;16.25;;;5.82;;
41689;SDS011;27372;42.658;23.256;2024-03-08T05:09:52;6.97;;;3.97;;
41689;SDS011;27372;42.658;23.256;2024-03-08T05:12:18;6.07;;;3.70;;
41689;SDS011;27372;42.658;23.256;2024-03-08T05:14:45;4.68;;;3.20;;
41689;SDS011;27372;42.658;23.256;2024-03-08T05:17:14;5.50;;;3.38;;
41689;SDS011;27372;42.658;23.256;2024-03-08T05:19:39;6.30;;;3.90;;
41689;SDS011;27372;42.658;23.256;2024-03-08T05:22:05;5.82;;;3.88;;
41689;SDS011;27372;42.658;23.256;2024-03-08T05:24:30;7.10;;;4.00;;
41689;SDS011;27372;42.658;23.256;2024-03-08T05:26:55;5.97;;;3.97;;
41689;SDS011;27372;42.658;23.256;2024-03-08T05:29:21;6.22;;;3.88;;
41689;SDS011;27372;42.658;23.256;2024-03-08T05:31:47;6.18;;;3.95;;
41689;SDS011;27372;42.658;23.256;2024-03-08T05:34:14;6.07;;;4.20;;
41689;SDS011;27372;42.658;23.256;2024-03-08T05:36:40;9.30;;;5.45;;
41689;SDS011;27372;42.658;23.256;2024-03-08T05:41:36;7.32;;;4.70;;
41689;SDS011;27372;42.658;23.256;2024-03-08T05:44:02;9.15;;;5.60;;
41689;SDS011;27372;42.658;23.256;2024-03-08T05:46:28;10.25;;;6.50;;
41689;SDS011;27372;42.658;23.256;2024-03-08T05:48:53;10.15;;;6.60;;
41689;SDS011;27372;42.658;23.256;2024-03-08T05:51:19;9.45;;;5.30;;
41689;SDS011;27372;42.658;23.256;2024-03-08T05:53:46;8.57;;;5.05;;
41689;SDS011;27372;42.658;23.256;2024-03-08T05:56:12;8.63;;;5.53;;
41689;SDS011;27372;42.658;23.256;2024-03-08T05:58:37;10.38;;;5.25;;
41689;SDS011;27372;42.658;23.256;2024-03-08T06:01:02;9.07;;;5.32;;
41689;SDS011;27372;42.658;23.256;2024-03-08T06:03:32;7.45;;;4.75;;
41689;SDS011;27372;42.658;23.256;2024-03-08T06:05:58;7.72;;;4.95;;
41689;SDS011;27372;42.658;23.256;2024-03-08T06:08:23;9.18;;;5.28;;
41689;SDS011;27372;42.658;23.256;2024-03-08T06:10:54;9.68;;;5.47;;
41689;SDS011;27372;42.658;23.256;2024-03-08T06:13:20;8.82;;;5.45;;
41689;SDS011;27372;42.658;23.256;2024-03-08T06:15:45;9.70;;;5.97;;
41689;SDS011;27372;42.658;23.256;2024-03-08T06:18:10;12.20;;;6.97;;
41689;SDS011;27372;42.658;23.256;2024-03-08T06:20:36;11.93;;;6.65;;
41689;SDS011;27372;42.658;23.256;2024-03-08T06:23:02;8.82;;;5.35;;
41689;SDS011;27372;42.658;23.256;2024-03-08T06:25:27;12.55;;;7.20;;
41689;SDS011;27372;42.658;23.256;2024-03-08T06:27:52;14.45;;;7.50;;
41689;SDS011;27372;42.658;23.256;2024-03-08T06:30:18;9.40;;;6.07;;
41689;SDS011;27372;42.658;23.256;2024-03-08T06:32:45;9.85;;;6.05;;
41689;SDS011;27372;42.658;23.256;2024-03-08T06:35:10;9.45;;;6.00;;
41689;SDS011;27372;42.658;23.256;2024-03-08T06:37:36;13.63;;;6.90;;
41689;SDS011;27372;42.658;23.256;2024-03-08T06:40:02;11.10;;;6.03;;
41689;SDS011;27372;42.658;23.256;2024-03-08T06:42:33;9.75;;;5.75;;
41689;SDS011;27372;42.658;23.256;2024-03-08T06:45:00;10.20;;;5.72;;
41689;SDS011;27372;42.658;23.256;2024-03-08T06:47:30;10.10;;;6.18;;
41689;SDS011;27372;42.658;23.256;2024-03-08T06:49:55;9.73;;;6.00;;
41689;SDS011;27372;42.658;23.256;2024-03-08T06:52:21;10.00;;;6.35;;
41689;SDS011;27372;42.658;23.256;2024-03-08T06:54:47;11.63;;;7.10;;
41689;SDS011;27372;42.658;23.256;2024-03-08T06:57:13;13.35;;;7.22;;
41689;SDS011;27372;42.658;23.256;2024-03-08T06:59:39;10.68;;;6.85;;
41689;SDS011;27372;42.658;23.256;2024-03-08T07:02:04;11.70;;;6.78;;
41689;SDS011;27372;42.658;23.256;2024-03-08T07:04:29;13.13;;;7.43;;
41689;SDS011;27372;42.658;23.256;2024-03-08T07:06:56;10.85;;;6.90;;
41689;SDS011;27372;42.658;23.256;2024-03-08T07:09:22;11.23;;;7.18;;
41689;SDS011;27372;42.658;23.256;2024-03-08T07:11:50;13.55;;;7.07;;
41689;SDS011;27372;42.658;23.256;2024-03-08T07:14:22;13.85;;;7.40;;
41689;SDS011;27372;42.658;23.256;2024-03-08T07:16:52;11.45;;;7.47;;
41689;SDS011;27372;42.658;23.256;2024-03-08T07:50:43;11.48;;;5.18;;
41689;SDS011;27372;42.658;23.256;2024-03-08T08:36:52;9.80;;;5.95;;
41689;SDS011;27372;42.658;23.256;2024-03-08T08:39:30;13.70;;;7.20;;
41689;SDS011;27372;42.658;23.256;2024-03-08T08:41:55;9.73;;;6.35;;
41689;SDS011;27372;42.658;23.256;2024-03-08T08:48:27;13.88;;;6.32;;
41689;SDS011;27372;42.658;23.256;2024-03-08T08:55:11;10.43;;;6.38;;
41689;SDS011;27372;42.658;23.256;2024-03-08T08:57:43;11.00;;;6.40;;
41689;SDS011;27372;42.658;23.256;2024-03-08T09:00:09;12.80;;;7.50;;
41689;SDS011;27372;42.658;23.256;2024-03-08T09:03:14;12.55;;;7.30;;
41689;SDS011;27372;42.658;23.256;2024-03-08T09:05:42;16.70;;;8.77;;
41689;SDS011;27372;42.658;23.256;2024-03-08T09:08:27;12.55;;;7.93;;
41689;SDS011;27372;42.658;23.256;2024-03-08T09:10:53;11.77;;;7.70;;
41689;SDS011;27372;42.658;23.256;2024-03-08T09:13:19;11.68;;;8.02;;
41689;SDS011;27372;42.658;23.256;2024-03-08T09:15:44;14.52;;;8.25;;
41689;SDS011;27372;42.658;23.256;2024-03-08T09:18:10;13.07;;;7.22;;
41689;SDS011;27372;42.658;23.256;2024-03-08T09:20:35;11.50;;;7.35;;
41689;SDS011;27372;42.658;23.256;2024-03-08T09:23:02;9.30;;;6.22;;
41689;SDS011;27372;42.658;23.256;2024-03-08T09:25:47;11.52;;;7.30;;
41689;SDS011;27372;42.658;23.256;2024-03-08T09:28:14;10.63;;;6.15;;
41689;SDS011;27372;42.658;23.256;2024-03-08T09:30:39;8.30;;;5.85;;
41689;SDS011;27372;42.658;23.256;2024-03-08T09:33:05;7.00;;;5.10;;
41689;SDS011;27372;42.658;23.256;2024-03-08T09:35:47;5.13;;;4.00;;
41689;SDS011;27372;42.658;23.256;2024-03-08T09:38:13;6.32;;;4.38;;
41689;SDS011;27372;42.658;23.256;2024-03-08T09:40:40;10.35;;;4.03;;
41689;SDS011;27372;42.658;23.256;2024-03-08T09:43:06;8.35;;;4.15;;
41689;SDS011;27372;42.658;23.256;2024-03-08T09:45:31;6.50;;;4.35;;
41689;SDS011;27372;42.658;23.256;2024-03-08T09:48:01;5.40;;;4.30;;
41689;SDS011;27372;42.658;23.256;2024-03-08T09:50:26;7.22;;;4.70;;
41689;SDS011;27372;42.658;23.256;2024-03-08T09:52:54;6.80;;;4.32;;
41689;SDS011;27372;42.658;23.256;2024-03-08T09:55:22;7.70;;;4.72;;
41689;SDS011;27372;42.658;23.256;2024-03-08T09:57:47;6.40;;;4.78;;
41689;SDS011;27372;42.658;23.256;2024-03-08T10:00:35;7.25;;;5.22;;
41689;SDS011;27372;42.658;23.256;2024-03-08T10:03:02;8.80;;;5.43;;
41689;SDS011;27372;42.658;23.256;2024-03-08T10:05:28;7.22;;;5.13;;
41689;SDS011;27372;42.658;23.256;2024-03-08T10:07:58;7.07;;;5.03;;
41689;SDS011;27372;42.658;23.256;2024-03-08T10:10:23;8.38;;;4.30;;
41689;SDS011;27372;42.658;23.256;2024-03-08T10:12:49;5.10;;;4.30;;
41689;SDS011;27372;42.658;23.256;2024-03-08T10:15:15;5.85;;;3.90;;
41689;SDS011;27372;42.658;23.256;2024-03-08T10:17:45;6.65;;;4.28;;
41689;SDS011;27372;42.658;23.256;2024-03-08T10:20:16;7.38;;;3.70;;
41689;SDS011;27372;42.658;23.256;2024-03-08T10:22:43;5.90;;;4.30;;
41689;SDS011;27372;42.658;23.256;2024-03-08T10:25:12;5.55;;;3.88;;
41689;SDS011;27372;42.658;23.256;2024-03-08T10:27:38;7.43;;;4.20;;
41689;SDS011;27372;42.658;23.256;2024-03-08T10:30:12;5.90;;;4.07;;
41689;SDS011;27372;42.658;23.256;2024-03-08T10:32:40;9.38;;;5.00;;
41689;SDS011;27372;42.658;23.256;2024-03-08T10:35:07;6.03;;;4.45;;
41689;SDS011;27372;42.658;23.256;2024-03-08T10:37:33;7.15;;;4.40;;
41689;SDS011;27372;42.658;23.256;2024-03-08T10:40:09;6.05;;;4.50;;
41689;SDS011;27372;42.658;23.256;2024-03-08T10:42:52;5.93;;;3.78;;
41689;SDS011;27372;42.658;23.256;2024-03-08T10:45:35;4.22;;;3.50;;
41689;SDS011;27372;42.658;23.256;2024-03-08T10:50:53;5.20;;;4.00;;
41689;SDS011;27372;42.658;23.256;2024-03-08T10:53:19;4.68;;;3.13;;
41689;SDS011;27372;42.658;23.256;2024-03-08T10:55:47;7.20;;;3.42;;
41689;SDS011;27372;42.658;23.256;2024-03-08T10:58:18;6.50;;;3.20;;
41689;SDS011;27372;42.658;23.256;2024-03-08T11:00:46;4.65;;;3.33;;
41689;SDS011;27372;42.658;23.256;2024-03-08T11:06:05;6.03;;;3.30;;
41689;SDS011;27372;42.658;23.256;2024-03-08T11:08:37;4.25;;;3.10;;
41689;SDS011;27372;42.658;23.256;2024-03-08T11:11:04;5.03;;;3.42;;
41689;SDS011;27372;42.658;23.256;2024-03-08T11:13:39;5.43;;;3.13;;
41689;SDS011;27372;42.658;23.256;2024-03-08T11:16:09;6.82;;;2.70;;
41689;SDS011;27372;42.658;23.256;2024-03-08T11:18:36;3.63;;;2.60;;
41689;SDS011;27372;42.658;23.256;2024-03-08T11:21:07;4.28;;;2.80;;
41689;SDS011;27372;42.658;23.256;2024-03-08T11:23:37;4.47;;;3.30;;
41689;SDS011;27372;42.658;23.256;2024-03-08T11:26:16;3.78;;;2.50;;
41689;SDS011;27372;42.658;23.256;2024-03-08T11:28:43;4.40;;;2.60;;
41689;SDS011;27372;42.658;23.256;2024-03-08T11:33:35;5.75;;;2.70;;
41689;SDS011;27372;42.658;23.256;2024-03-08T11:36:11;3.97;;;2.65;;
41689;SDS011;27372;42.658;23.256;2024-03-08T11:38:41;4.65;;;3.20;;
41689;SDS011;27372;42.658;23.256;2024-03-08T11:41:08;4.43;;;2.70;;
41689;SDS011;27372;42.658;23.256;2024-03-08T11:46:08;3.50;;;3.00;;
41689;SDS011;27372;42.658;23.256;2024-03-08T11:48:34;5.03;;;2.67;;
41689;SDS011;27372;42.658;23.256;2024-03-08T11:51:03;3.42;;;2.40;;
41689;SDS011;27372;42.658;23.256;2024-03-08T11:53:30;4.85;;;3.20;;
41689;SDS011;27372;42.658;23.256;2024-03-08T11:56:13;5.15;;;3.22;;
41689;SDS011;27372;42.658;23.256;2024-03-08T11:58:39;5.13;;;3.03;;
41689;SDS011;27372;42.658;23.256;2024-03-08T12:01:07;6.07;;;3.00;;
41689;SDS011;27372;42.658;23.256;2024-03-08T12:03:42;4.88;;;2.75;;
41689;SDS011;27372;42.658;23.256;2024-03-08T12:06:10;3.28;;;2.53;;
41689;SDS011;27372;42.658;23.256;2024-03-08T12:08:38;5.70;;;3.15;;
41689;SDS011;27372;42.658;23.256;2024-03-08T12:11:04;7.72;;;4.72;;
41689;SDS011;27372;42.658;23.256;2024-03-08T12:13:31;5.40;;;3.80;;
41689;SDS011;27372;42.658;23.256;2024-03-08T12:15:59;5.93;;;3.78;;
41689;SDS011;27372;42.658;23.256;2024-03-08T12:18:25;3.50;;;2.42;;
41689;SDS011;27372;42.658;23.256;2024-03-08T12:21:03;3.17;;;2.30;;
41689;SDS011;27372;42.658;23.256;2024-03-08T12:23:32;3.92;;;2.88;;
41689;SDS011;27372;42.658;23.256;2024-03-08T12:26:08;4.18;;;2.28;;
41689;SDS011;27372;42.658;23.256;2024-03-08T12:28:49;6.25;;;2.72;;
41689;SDS011;27372;42.658;23.256;2024-03-08T12:31:16;2.97;;;2.40;;
41689;SDS011;27372;42.658;23.256;2024-03-08T12:33:51;3.28;;;2.25;;
41689;SDS011;27372;42.658;23.256;2024-03-08T12:36:19;7.22;;;3.65;;
41689;SDS011;27372;42.658;23.256;2024-03-08T12:38:47;5.22;;;2.60;;
41689;SDS011;27372;42.658;23.256;2024-03-08T12:41:16;3.60;;;2.55;;
41689;SDS011;27372;42.658;23.256;2024-03-08T12:43:43;4.20;;;3.15;;
41689;SDS011;27372;42.658;23.256;2024-03-08T12:46:16;7.60;;;3.53;;
41689;SDS011;27372;42.658;23.256;2024-03-08T12:48:45;10.02;;;3.60;;
41689;SDS011;27372;42.658;23.256;2024-03-08T12:51:14;5.15;;;3.65;;
41689;SDS011;27372;42.658;23.256;2024-03-08T12:53:43;5.53;;;3.60;;
41689;SDS011;27372;42.658;23.256;2024-03-08T12:56:09;3.97;;;2.85;;
41689;SDS011;27372;42.658;23.256;2024-03-08T12:58:36;2.88;;;2.50;;
41689;SDS011;27372;42.658;23.256;2024-03-08T13:01:05;3.30;;;2.65;;
41689;SDS011;27372;42.658;23.256;2024-03-08T13:03:32;4.43;;;2.60;;
41689;SDS011;27372;42.658;23.256;2024-03-08T13:06:01;5.32;;;3.47;;
41689;SDS011;27372;42.658;23.256;2024-03-08T13:08:28;4.32;;;3.50;;
41689;SDS011;27372;42.658;23.256;2024-03-08T13:10:54;7.78;;;4.22;;
41689;SDS011;27372;42.658;23.256;2024-03-08T13:13:20;5.53;;;2.72;;
41689;SDS011;27372;42.658;23.256;2024-03-08T13:15:45;6.20;;;4.70;;
41689;SDS011;27372;42.658;23.256;2024-03-08T13:18:11;5.25;;;3.55;;
41689;SDS011;27372;42.658;23.256;2024-03-08T13:20:36;5.88;;;3.30;;
41689;SDS011;27372;42.658;23.256;2024-03-08T13:23:04;6.83;;;4.03;;
41689;SDS011;27372;42.658;23.256;2024-03-08T13:25:30;6.30;;;3.38;;
41689;SDS011;27372;42.658;23.256;2024-03-08T13:27:56;4.88;;;2.63;;
41689;SDS011;27372;42.658;23.256;2024-03-08T13:30:24;6.57;;;2.90;;
41689;SDS011;27372;42.658;23.256;2024-03-08T13:32:51;4.70;;;3.33;;
41689;SDS011;27372;42.658;23.256;2024-03-08T13:35:18;3.30;;;2.80;;
41689;SDS011;27372;42.658;23.256;2024-03-08T13:37:50;3.40;;;2.83;;
41689;SDS011;27372;42.658;23.256;2024-03-08T13:40:16;5.75;;;3.33;;
41689;SDS011;27372;42.658;23.256;2024-03-08T13:42:45;5.47;;;2.70;;
41689;SDS011;27372;42.658;23.256;2024-03-08T13:45:11;3.63;;;2.70;;
41689;SDS011;27372;42.658;23.256;2024-03-08T13:47:41;4.10;;;2.88;;
41689;SDS011;27372;42.658;23.256;2024-03-08T13:50:07;3.00;;;2.20;;
41689;SDS011;27372;42.658;23.256;2024-03-08T13:52:36;3.15;;;2.38;;
41689;SDS011;27372;42.658;23.256;2024-03-08T13:55:03;2.75;;;2.05;;
41689;SDS011;27372;42.658;23.256;2024-03-08T13:57:30;3.70;;;2.17;;
41689;SDS011;27372;42.658;23.256;2024-03-08T13:59:56;3.88;;;2.67;;
41689;SDS011;27372;42.658;23.256;2024-03-08T14:02:22;5.03;;;3.03;;
41689;SDS011;27372;42.658;23.256;2024-03-08T14:04:50;9.55;;;3.70;;
41689;SDS011;27372;42.658;23.256;2024-03-08T14:07:15;6.82;;;3.10;;
41689;SDS011;27372;42.658;23.256;2024-03-08T14:09:43;6.00;;;3.22;;
41689;SDS011;27372;42.658;23.256;2024-03-08T14:12:09;4.78;;;2.50;;
41689;SDS011;27372;42.658;23.256;2024-03-08T14:14:35;4.47;;;2.85;;
41689;SDS011;27372;42.658;23.256;2024-03-08T14:17:02;5.55;;;2.50;;
41689;SDS011;27372;42.658;23.256;2024-03-08T14:19:29;2.88;;;2.20;;
41689;SDS011;27372;42.658;23.256;2024-03-08T14:21:59;4.43;;;2.83;;
41689;SDS011;27372;42.658;23.256;2024-03-08T14:24:25;6.15;;;2.80;;
41689;SDS011;27372;42.658;23.256;2024-03-08T14:26:51;6.03;;;2.70;;
41689;SDS011;27372;42.658;23.256;2024-03-08T14:29:17;9.93;;;3.55;;
41689;SDS011;27372;42.658;23.256;2024-03-08T14:31:44;5.97;;;3.85;;
41689;SDS011;27372;42.658;23.256;2024-03-08T14:34:10;5.60;;;3.00;;
41689;SDS011;27372;42.658;23.256;2024-03-08T14:36:35;5.28;;;3.33;;
41689;SDS011;27372;42.658;23.256;2024-03-08T14:39:02;13.85;;;5.78;;
41689;SDS011;27372;42.658;23.256;2024-03-08T14:41:28;8.20;;;3.75;;
41689;SDS011;27372;42.658;23.256;2024-03-08T14:43:55;6.30;;;2.88;;
41689;SDS011;27372;42.658;23.256;2024-03-08T14:46:22;7.07;;;2.90;;
41689;SDS011;27372;42.658;23.256;2024-03-08T14:48:48;5.60;;;3.10;;
41689;SDS011;27372;42.658;23.256;2024-03-08T14:53:46;4.53;;;2.70;;
41689;SDS011;27372;42.658;23.256;2024-03-08T14:56:11;4.32;;;2.67;;
41689;SDS011;27372;42.658;23.256;2024-03-08T14:58:47;4.28;;;2.50;;
41689;SDS011;27372;42.658;23.256;2024-03-08T15:01:16;6.53;;;2.80;;
41689;SDS011;27372;42.658;23.256;2024-03-08T15:03:46;6.43;;;2.80;;
41689;SDS011;27372;42.658;23.256;2024-03-08T15:06:13;4.07;;;2.50;;
41689;SDS011;27372;42.658;23.256;2024-03-08T15:08:40;3.85;;;2.50;;
41689;SDS011;27372;42.658;23.256;2024-03-08T15:11:06;4.05;;;2.70;;
41689;SDS011;27372;42.658;23.256;2024-03-08T15:13:35;5.05;;;3.13;;
41689;SDS011;27372;42.658;23.256;2024-03-08T15:16:09;6.07;;;3.42;;
41689;SDS011;27372;42.658;23.256;2024-03-08T15:18:42;6.75;;;3.83;;
41689;SDS011;27372;42.658;23.256;2024-03-08T15:21:11;5.78;;;3.45;;
41689;SDS011;27372;42.658;23.256;2024-03-08T15:23:37;6.15;;;3.33;;
41689;SDS011;27372;42.658;23.256;2024-03-08T15:26:08;4.40;;;3.00;;
41689;SDS011;27372;42.658;23.256;2024-03-08T15:28:34;11.05;;;5.30;;
41689;SDS011;27372;42.658;23.256;2024-03-08T15:31:03;9.38;;;5.05;;
41689;SDS011;27372;42.658;23.256;2024-03-08T15:33:33;19.50;;;4.30;;
41689;SDS011;27372;42.658;23.256;2024-03-08T15:35:59;7.70;;;4.32;;
41689;SDS011;27372;42.658;23.256;2024-03-08T15:38:29;8.95;;;5.10;;
41689;SDS011;27372;42.658;23.256;2024-03-08T16:17:10;10.35;;;6.03;;
41689;SDS011;27372;42.658;23.256;2024-03-08T16:19:38;11.57;;;6.40;;
41689;SDS011;27372;42.658;23.256;2024-03-08T16:22:06;12.32;;;6.07;;
41689;SDS011;27372;42.658;23.256;2024-03-08T16:25:10;9.38;;;6.05;;
41689;SDS011;27372;42.658;23.256;2024-03-08T16:27:41;13.82;;;6.28;;
41689;SDS011;27372;42.658;23.256;2024-03-08T16:30:07;13.20;;;6.45;;
41689;SDS011;27372;42.658;23.256;2024-03-08T16:59:39;7.88;;;5.07;;
41689;SDS011;27372;42.658;23.256;2024-03-08T17:09:06;8.05;;;5.28;;
41689;SDS011;27372;42.658;23.256;2024-03-08T17:18:33;8.32;;;5.90;;
41689;SDS011;27372;42.658;23.256;2024-03-08T17:28:39;9.50;;;6.30;;
41689;SDS011;27372;42.658;23.256;2024-03-08T17:32:02;11.30;;;6.72;;
41689;SDS011;27372;42.658;23.256;2024-03-08T17:48:40;16.92;;;6.45;;
41689;SDS011;27372;42.658;23.256;2024-03-08T18:39:08;16.20;;;8.55;;
41689;SDS011;27372;42.658;23.256;2024-03-08T18:45:24;11.80;;;7.40;;